Terminal Aerodrome Forecast
Issued by NWS Louisville, KY

Home | Current Version | Previous Version | Text Only | Print | Product List | Glossary On
Versions: 1 2 3 4 5 6 7 8 9 10 11 12 13 14 15
000
FTUS43 KLMK 261100
TAFLEX
TAF
KLEX 261130Z 2612/2712 30010KT 4SM -SHRA BR BKN015
     FM261600 31011KT 4SM -SHRA BR BKN008
     FM270000 33010KT P6SM VCSH BKN015
     FM270200 34005KT P6SM BKN250=

USA.gov is the U.S. government's official web portal to all federal, state and local government web resources and services.